createdAt,value
2018-09-18T00:00:31.445Z,5.87
2018-09-18T00:01:05.337Z,5.30
2018-09-18T00:01:39.171Z,5.60
2018-09-18T00:02:13.751Z,5.50
2018-09-18T00:02:48.021Z,5.23
2018-09-18T00:03:21.879Z,4.90
2018-09-18T00:03:56.327Z,5.67
2018-09-18T00:04:30.161Z,5.73
2018-09-18T00:05:04.021Z,5.83
2018-09-18T00:05:38.189Z,5.20
2018-09-18T00:06:12.195Z,5.63
2018-09-18T00:06:46.053Z,5.10
2018-09-18T00:07:19.969Z,5.33
2018-09-18T00:07:53.833Z,5.67
2018-09-18T00:08:28.021Z,5.47
2018-09-18T00:09:01.881Z,5.03
2018-09-18T00:09:36.085Z,5.80
2018-09-18T00:10:10.289Z,5.80
2018-09-18T00:10:44.169Z,4.57
2018-09-18T00:11:18.259Z,5.53
2018-09-18T00:11:52.083Z,5.93
2018-09-18T00:12:25.907Z,5.97
2018-09-18T00:12:59.755Z,5.97
2018-09-18T00:13:33.615Z,6.20
2018-09-18T00:14:07.976Z,5.50
2018-09-18T00:14:41.852Z,5.70
2018-09-18T00:15:16.050Z,5.73
2018-09-18T00:15:50.042Z,5.70
2018-09-18T00:16:23.973Z,6.67
2018-09-18T00:16:58.107Z,5.03
2018-09-18T00:17:31.973Z,5.57
2018-09-18T00:18:06.181Z,5.67
2018-09-18T00:18:40.051Z,5.60
2018-09-18T00:19:13.945Z,5.40
2018-09-18T00:19:47.753Z,4.90
2018-09-18T00:20:21.633Z,5.93
2018-09-18T00:20:55.590Z,5.67
2018-09-18T00:21:29.477Z,5.20
2018-09-18T00:22:03.642Z,5.50
2018-09-18T00:22:37.567Z,5.97
2018-09-18T00:23:11.649Z,5.30
2018-09-18T00:23:46.241Z,6.90
2018-09-18T00:24:20.548Z,6.37
2018-09-18T00:24:54.413Z,6.67
2018-09-18T00:25:28.267Z,6.67
2018-09-18T00:26:02.132Z,5.87
2018-09-18T00:26:36.193Z,6.10
2018-09-18T00:27:10.025Z,5.43
2018-09-18T00:27:43.909Z,5.83
2018-09-18T00:28:17.780Z,6.23
2018-09-18T00:28:51.617Z,5.50
2018-09-18T00:29:25.501Z,6.23
2018-09-18T00:30:00.387Z,5.90
2018-09-18T00:30:34.576Z,5.50
2018-09-18T00:31:08.784Z,5.70
2018-09-18T00:31:42.745Z,5.90
2018-09-18T00:32:16.601Z,5.50
2018-09-18T00:32:50.574Z,5.43
2018-09-18T00:33:24.406Z,5.83
2018-09-18T00:33:58.239Z,5.93
2018-09-18T00:34:32.126Z,5.63
2018-09-18T00:35:06.321Z,5.97
2018-09-18T00:35:40.165Z,5.50
2018-09-18T00:36:14.110Z,6.00
2018-09-18T00:36:48.074Z,6.30
2018-09-18T00:37:22.196Z,6.43
2018-09-18T00:37:56.565Z,5.87
2018-09-18T00:38:30.483Z,5.77
2018-09-18T00:39:06.733Z,6.27
2018-09-18T00:39:40.598Z,5.70
2018-09-18T00:40:15.108Z,6.10
2018-09-18T00:40:49.028Z,5.73
2018-09-18T00:41:22.981Z,5.97
2018-09-18T00:41:57.271Z,5.47
2018-09-18T00:42:31.105Z,5.80
2018-09-18T00:43:05.342Z,6.37
2018-09-18T00:43:39.274Z,6.00
2018-09-18T00:44:13.577Z,6.40
2018-09-18T00:44:47.865Z,6.37
2018-09-18T00:45:22.084Z,5.70
2018-09-18T00:45:55.983Z,6.23
2018-09-18T00:46:30.490Z,5.77
2018-09-18T00:47:05.057Z,5.90
2018-09-18T00:47:38.999Z,5.80
2018-09-18T00:48:12.857Z,5.97
2018-09-18T00:48:46.754Z,6.07
2018-09-18T00:49:20.682Z,6.80
2018-09-18T00:49:54.995Z,5.43
2018-09-18T00:50:29.536Z,5.97
2018-09-18T00:51:03.389Z,6.33
2018-09-18T00:51:37.297Z,6.13
2018-09-18T00:52:11.166Z,6.90
2018-09-18T00:52:45.059Z,5.20
2018-09-18T00:53:18.896Z,5.90
2018-09-18T00:53:52.758Z,6.03
2018-09-18T00:54:26.595Z,5.80
2018-09-18T00:55:00.437Z,5.60
2018-09-18T00:55:34.623Z,6.20
2018-09-18T00:56:08.665Z,6.43
2018-09-18T00:56:42.821Z,5.53
2018-09-18T00:57:17.059Z,5.47
2018-09-18T00:57:50.919Z,5.23
2018-09-18T00:58:24.905Z,6.40
2018-09-18T00:58:58.729Z,6.30
2018-09-18T00:59:32.933Z,5.93
2018-09-18T01:00:07.437Z,5.90
2018-09-18T01:00:41.641Z,6.00
2018-09-18T01:01:15.517Z,5.77
2018-09-18T01:01:49.367Z,5.77
2018-09-18T01:02:23.282Z,6.40
2018-09-18T01:02:57.121Z,5.33
2018-09-18T01:03:30.965Z,5.50
2018-09-18T01:04:05.193Z,5.03
2018-09-18T01:04:39.035Z,5.60
2018-09-18T01:05:13.221Z,5.77
2018-09-18T01:05:47.073Z,4.80
2018-09-18T01:06:20.951Z,5.87
2018-09-18T01:06:55.163Z,5.13
2018-09-18T01:07:29.075Z,5.07
2018-09-18T01:08:02.949Z,5.90
2018-09-18T01:08:36.793Z,5.77
2018-09-18T01:09:11.353Z,5.40
2018-09-18T01:09:45.245Z,5.23
2018-09-18T01:10:19.075Z,5.57
2018-09-18T01:10:53.628Z,5.10
2018-09-18T01:11:27.646Z,5.40
2018-09-18T01:12:01.815Z,5.23
2018-09-18T01:12:35.693Z,5.40
2018-09-18T01:13:09.897Z,5.73
2018-09-18T01:13:43.761Z,6.17
2018-09-18T01:14:18.109Z,5.63
2018-09-18T01:14:51.961Z,5.03
2018-09-18T01:15:25.802Z,5.37
2018-09-18T01:15:59.861Z,5.47
2018-09-18T01:16:33.697Z,5.57
2018-09-18T01:17:07.569Z,4.70
2018-09-18T01:17:41.770Z,5.87
2018-09-18T01:18:15.967Z,5.50
2018-09-18T01:18:50.157Z,5.20
2018-09-18T01:19:24.009Z,5.20
2018-09-18T01:19:58.182Z,4.93
2018-09-18T01:20:32.037Z,4.90
2018-09-18T01:21:06.205Z,4.50
2018-09-18T01:21:40.071Z,4.50
2018-09-18T01:22:13.909Z,4.63
2018-09-18T01:22:47.785Z,4.80
2018-09-18T01:23:21.635Z,5.17
2018-09-18T01:23:55.473Z,4.67
2018-09-18T01:24:29.319Z,5.43
2018-09-18T01:25:03.497Z,5.20
2018-09-18T01:25:37.479Z,5.63
2018-09-18T01:26:11.663Z,5.23
2018-09-18T01:26:45.873Z,5.13
2018-09-18T01:27:19.787Z,5.40
2018-09-18T01:27:53.696Z,4.70
2018-09-18T01:28:28.219Z,5.03
2018-09-18T01:29:02.089Z,5.03
2018-09-18T01:29:35.909Z,5.10
2018-09-18T01:30:10.049Z,5.10
2018-09-18T01:30:43.934Z,5.03
2018-09-18T01:31:17.753Z,5.03
2018-09-18T01:31:51.602Z,5.23
2018-09-18T01:32:25.443Z,4.93
2018-09-18T01:32:59.343Z,5.30
2018-09-18T01:33:33.329Z,5.00
2018-09-18T01:34:07.191Z,5.20
2018-09-18T01:34:41.045Z,5.00
2018-09-18T01:35:14.907Z,4.73
2018-09-18T01:35:48.761Z,5.27
2018-09-18T01:36:22.970Z,5.23
2018-09-18T01:36:56.795Z,5.10
2018-09-18T01:37:30.657Z,6.07
2018-09-18T01:38:04.535Z,4.90
2018-09-18T01:38:38.706Z,5.17
2018-09-18T01:39:12.792Z,5.87
2018-09-18T01:39:46.603Z,5.57
2018-09-18T01:40:20.761Z,4.90
2018-09-18T01:40:55.295Z,5.37
2018-09-18T01:41:29.137Z,4.90
2018-09-18T01:42:03.313Z,4.97
2018-09-18T01:42:37.150Z,5.47
2018-09-18T01:43:10.996Z,5.30
2018-09-18T01:43:44.886Z,5.07
2018-09-18T01:44:18.905Z,5.23
2018-09-18T01:44:53.095Z,5.13
2018-09-18T01:45:27.281Z,5.33
2018-09-18T01:46:01.131Z,5.57
2018-09-18T01:46:35.309Z,5.00
2018-09-18T01:47:09.349Z,5.03
2018-09-18T01:47:43.198Z,5.20
2018-09-18T01:48:17.089Z,5.23
2018-09-18T01:48:50.929Z,5.13
2018-09-18T01:49:25.123Z,5.40
2018-09-18T01:49:58.949Z,5.17
2018-09-18T01:50:32.769Z,4.93
2018-09-18T01:51:07.310Z,5.47
2018-09-18T01:51:41.493Z,5.40
2018-09-18T01:52:15.575Z,5.10
2018-09-18T01:52:49.407Z,5.50
2018-09-18T01:53:23.277Z,4.80
2018-09-18T01:53:57.147Z,5.00
2018-09-18T01:54:31.299Z,4.87
2018-09-18T01:55:05.472Z,5.23
2018-09-18T01:55:39.339Z,5.17
2018-09-18T01:56:13.161Z,5.10
2018-09-18T01:56:47.045Z,5.50
2018-09-18T01:57:20.913Z,5.37
2018-09-18T01:57:54.745Z,4.90
2018-09-18T01:58:28.606Z,5.10
2018-09-18T01:59:02.454Z,5.10
2018-09-18T01:59:36.296Z,5.60
2018-09-18T02:00:10.484Z,4.97
2018-09-18T02:00:44.315Z,4.90
2018-09-18T02:01:18.186Z,6.20
2018-09-18T02:01:52.421Z,5.27
2018-09-18T02:02:26.271Z,5.10
2018-09-18T02:03:00.122Z,5.87
2018-09-18T02:03:33.997Z,5.37
2018-09-18T02:04:07.857Z,5.40
2018-09-18T02:04:41.695Z,5.20
2018-09-18T02:05:15.572Z,5.50
2018-09-18T02:05:49.452Z,5.43
2018-09-18T02:06:23.654Z,5.27
2018-09-18T02:06:57.510Z,5.80
2018-09-18T02:07:31.371Z,5.43
2018-09-18T02:08:05.576Z,5.73
2018-09-18T02:08:39.651Z,6.20
2018-09-18T02:09:13.502Z,5.00
2018-09-18T02:09:47.362Z,5.10
2018-09-18T02:10:21.220Z,5.30
2018-09-18T02:10:55.082Z,5.70
2018-09-18T02:11:28.897Z,5.00
2018-09-18T02:12:02.731Z,5.13
2018-09-18T02:12:36.563Z,5.03
2018-09-18T02:13:10.442Z,5.17
2018-09-18T02:13:44.352Z,5.20
2018-09-18T02:14:18.232Z,5.20
2018-09-18T02:14:52.083Z,5.93
2018-09-18T02:15:25.920Z,5.53
2018-09-18T02:15:59.800Z,5.33
2018-09-18T02:16:33.632Z,5.17
2018-09-18T02:17:07.485Z,5.37
2018-09-18T02:17:41.324Z,5.07
2018-09-18T02:18:15.173Z,5.23
2018-09-18T02:18:49.414Z,5.60
2018-09-18T02:19:23.252Z,5.73
2018-09-18T02:19:57.130Z,5.67
2018-09-18T02:20:31.000Z,5.13
2018-09-18T02:21:05.506Z,5.70
2018-09-18T02:21:39.340Z,4.90
2018-09-18T02:22:13.192Z,5.03
2018-09-18T02:22:47.054Z,5.00
2018-09-18T02:23:20.900Z,5.27
2018-09-18T02:23:55.110Z,5.40
2018-09-18T02:24:28.992Z,5.00
2018-09-18T02:25:03.181Z,5.10
2018-09-18T02:25:37.044Z,5.20
2018-09-18T02:26:10.886Z,5.60
2018-09-18T02:26:44.714Z,5.60
2018-09-18T02:27:18.572Z,5.50
2018-09-18T02:27:52.414Z,5.03
2018-09-18T02:28:26.238Z,5.13
2018-09-18T02:29:00.098Z,4.90
2018-09-18T02:29:33.966Z,4.83
2018-09-18T02:30:14.702Z,5.00
2018-09-18T02:30:48.578Z,5.33
2018-09-18T02:31:22.469Z,5.10
2018-09-18T02:31:56.308Z,5.20
2018-09-18T02:32:30.503Z,5.10
2018-09-18T02:33:04.342Z,5.00
2018-09-18T02:33:38.252Z,5.37
2018-09-18T02:34:12.126Z,5.30
2018-09-18T02:34:46.062Z,5.07
2018-09-18T02:35:19.950Z,5.13
2018-09-18T02:35:53.810Z,5.30
2018-09-18T02:36:27.654Z,5.30
2018-09-18T02:37:01.858Z,5.13
2018-09-18T02:37:36.033Z,5.20
2018-09-18T02:38:09.901Z,5.60
2018-09-18T02:38:43.740Z,4.87
2018-09-18T02:39:17.664Z,5.63
2018-09-18T02:39:58.336Z,5.20
2018-09-18T02:40:32.185Z,6.03
2018-09-18T02:41:06.070Z,5.60
2018-09-18T02:41:40.050Z,5.40
2018-09-18T02:42:14.262Z,5.70
2018-09-18T02:42:48.482Z,5.43
2018-09-18T02:43:22.692Z,5.23
2018-09-18T02:43:56.514Z,5.67
2018-09-18T02:44:30.396Z,6.00
2018-09-18T02:45:04.237Z,6.10
2018-09-18T02:45:38.746Z,5.30
2018-09-18T02:46:12.861Z,5.40
2018-09-18T02:46:46.716Z,4.90
2018-09-18T02:47:20.585Z,5.23
2018-09-18T02:47:54.522Z,5.10
2018-09-18T02:48:28.482Z,5.77
2018-09-18T02:49:02.326Z,5.60
2018-09-18T02:49:36.227Z,4.80
2018-09-18T02:50:10.435Z,6.03
2018-09-18T02:50:44.280Z,6.50
2018-09-18T02:51:18.441Z,6.00
2018-09-18T02:51:52.665Z,4.90
2018-09-18T02:52:26.525Z,5.40
2018-09-18T02:53:00.372Z,5.40
2018-09-18T02:53:34.293Z,5.67
2018-09-18T02:54:08.140Z,5.40
2018-09-18T02:55:45.475Z,5.40
2018-09-18T02:56:19.342Z,5.40
2018-09-18T02:56:53.231Z,5.63
2018-09-18T02:57:27.083Z,5.20
2018-09-18T02:58:00.972Z,4.97
2018-09-18T02:58:34.831Z,4.70
2018-09-18T02:59:08.690Z,4.60
2018-09-18T02:59:42.943Z,4.97
2018-09-18T03:00:16.802Z,5.77
2018-09-18T03:00:50.993Z,4.90
2018-09-18T03:01:24.887Z,5.83
2018-09-18T03:01:59.085Z,5.23
2018-09-18T03:02:32.986Z,4.93
2018-09-18T03:03:06.859Z,4.97
2018-09-18T03:03:40.732Z,5.20
2018-09-18T03:04:14.616Z,5.33
2018-09-18T03:04:48.470Z,4.77
2018-09-18T03:05:22.661Z,5.30
2018-09-18T03:05:56.607Z,4.53
2018-09-18T03:06:31.128Z,4.87
2018-09-18T03:07:04.988Z,5.20
2018-09-18T03:07:38.912Z,4.97
2018-09-18T03:08:12.798Z,5.00
2018-09-18T03:08:46.701Z,4.33
2018-09-18T03:09:20.576Z,4.60
2018-09-18T03:09:54.505Z,5.30
2018-09-18T03:10:28.353Z,5.50
2018-09-18T03:11:02.586Z,5.63
2018-09-18T03:11:36.626Z,4.63
2018-09-18T03:12:10.441Z,5.00
2018-09-18T03:12:44.301Z,4.70
2018-09-18T03:13:18.138Z,4.97
2018-09-18T03:13:51.978Z,4.67
2018-09-18T03:14:25.818Z,5.17
2018-09-18T03:14:59.686Z,4.57
2018-09-18T03:15:33.510Z,4.80
2018-09-18T03:16:07.389Z,5.10
2018-09-18T03:16:41.567Z,5.30
2018-09-18T03:17:15.395Z,4.00
2018-09-18T03:17:49.273Z,5.00
2018-09-18T03:18:23.125Z,4.37
2018-09-18T03:18:56.997Z,4.77
2018-09-18T03:19:30.868Z,5.17
2018-09-18T03:20:05.298Z,5.30
2018-09-18T03:20:39.168Z,4.97
2018-09-18T03:21:13.065Z,5.43
2018-09-18T03:21:46.959Z,5.07
2018-09-18T03:22:20.812Z,5.33
2018-09-18T03:22:54.670Z,5.40
2018-09-18T03:23:28.558Z,5.10
2018-09-18T03:24:02.418Z,4.30
2018-09-18T03:24:36.568Z,4.40
2018-09-18T03:25:10.798Z,4.93
2018-09-18T03:25:44.678Z,5.50
2018-09-18T03:26:18.570Z,5.20
2018-09-18T03:26:52.478Z,4.80
2018-09-18T03:27:26.755Z,4.20
2018-09-18T03:28:01.239Z,4.70
2018-09-18T03:28:35.433Z,4.77
2018-09-18T03:29:09.308Z,5.30
2018-09-18T03:29:43.189Z,4.80
2018-09-18T03:30:17.772Z,4.47
2018-09-18T03:30:51.931Z,5.60
2018-09-18T03:31:26.138Z,5.13
2018-09-18T03:31:59.979Z,4.40
2018-09-18T03:32:33.820Z,5.00
2018-09-18T03:33:07.681Z,5.20
2018-09-18T03:33:41.510Z,5.43
2018-09-18T03:34:15.372Z,4.63
2018-09-18T03:34:49.720Z,4.97
2018-09-18T03:35:23.594Z,4.80
2018-09-18T03:35:57.483Z,5.10
2018-09-18T03:36:31.764Z,4.47
2018-09-18T03:37:05.607Z,5.20
2018-09-18T03:37:39.470Z,5.20
2018-09-18T03:38:13.525Z,4.57
2018-09-18T03:38:48.097Z,4.60
2018-09-18T03:39:22.004Z,4.70
2018-09-18T03:39:55.848Z,5.00
2018-09-18T03:40:29.720Z,5.67
2018-09-18T03:41:03.569Z,5.80
2018-09-18T03:41:37.639Z,4.97
2018-09-18T03:42:11.495Z,4.47
2018-09-18T03:42:45.351Z,4.70
2018-09-18T03:43:19.279Z,4.47
2018-09-18T03:43:53.369Z,4.87
2018-09-18T03:44:27.204Z,4.73
2018-09-18T03:45:01.075Z,5.63
2018-09-18T03:45:34.969Z,5.00
2018-09-18T03:46:08.814Z,4.60
2018-09-18T03:46:42.921Z,5.30
2018-09-18T03:47:20.749Z,4.87
2018-09-18T03:47:54.601Z,5.13
2018-09-18T03:48:28.442Z,4.73
2018-09-18T03:49:02.286Z,5.33
2018-09-18T03:49:36.155Z,5.17
2018-09-18T03:50:10.715Z,5.27
2018-09-18T03:50:44.585Z,4.50
2018-09-18T03:51:18.507Z,4.93
2018-09-18T03:51:52.365Z,5.03
2018-09-18T03:52:26.587Z,4.17
2018-09-18T03:53:00.475Z,4.70
2018-09-18T03:53:34.327Z,4.37
2018-09-18T03:54:08.533Z,4.37
2018-09-18T03:54:42.402Z,4.03
2018-09-18T03:55:16.589Z,4.90
2018-09-18T03:55:50.431Z,5.27
2018-09-18T03:56:24.463Z,5.00
2018-09-18T03:56:58.353Z,4.70
2018-09-18T03:57:32.241Z,5.20
2018-09-18T03:58:06.985Z,5.40
2018-09-18T03:58:41.129Z,4.63
2018-09-18T03:59:14.988Z,4.77
2018-09-18T03:59:49.496Z,4.30
2018-09-18T04:00:23.697Z,5.23
2018-09-18T04:00:57.520Z,4.37
2018-09-18T04:01:31.348Z,4.37
2018-09-18T04:02:05.247Z,4.63
2018-09-18T04:02:39.184Z,4.80
2018-09-18T04:03:13.401Z,4.30
2018-09-18T04:03:47.859Z,4.40
2018-09-18T04:04:21.709Z,4.87
2018-09-18T04:04:55.557Z,4.90
2018-09-18T04:05:29.397Z,4.03
2018-09-18T04:06:03.243Z,5.07
2018-09-18T04:06:37.104Z,5.07
2018-09-18T04:07:11.340Z,5.07
2018-09-18T04:07:45.200Z,4.80
2018-09-18T04:08:19.051Z,4.00
2018-09-18T04:08:53.242Z,5.30
2018-09-18T04:09:27.145Z,5.57
2018-09-18T04:10:01.037Z,5.07
2018-09-18T04:10:35.513Z,4.30
2018-09-18T04:11:09.538Z,4.47
2018-09-18T04:11:43.416Z,4.53
2018-09-18T04:12:17.290Z,4.77
2018-09-18T04:12:51.216Z,4.67
2018-09-18T04:13:25.105Z,5.03
2018-09-18T04:13:58.993Z,4.83
2018-09-18T04:14:32.853Z,4.67
2018-09-18T04:15:07.023Z,5.30
2018-09-18T04:15:41.517Z,4.27
2018-09-18T04:16:15.393Z,4.73
2018-09-18T04:16:49.407Z,4.70
2018-09-18T04:17:23.882Z,4.53
2018-09-18T04:17:58.425Z,4.20
2018-09-18T04:18:32.300Z,5.30
2018-09-18T04:19:06.171Z,4.40
2018-09-18T04:19:40.933Z,4.03
2018-09-18T04:20:15.071Z,4.70
2018-09-18T04:20:48.919Z,4.23
2018-09-18T04:21:27.095Z,4.40
2018-09-18T04:22:00.960Z,4.17
2018-09-18T04:22:34.801Z,5.13
2018-09-18T04:23:08.638Z,5.07
2018-09-18T04:23:42.829Z,5.10
2018-09-18T04:24:16.696Z,4.60
2018-09-18T04:24:50.521Z,5.10
2018-09-18T04:25:24.404Z,4.13
2018-09-18T04:25:58.613Z,4.20
2018-09-18T04:26:32.494Z,4.40
2018-09-18T04:27:06.531Z,4.37
2018-09-18T04:27:40.688Z,4.23
2018-09-18T04:28:14.508Z,4.50
2018-09-18T04:28:48.365Z,4.60
2018-09-18T04:29:22.188Z,4.50
2018-09-18T04:29:56.091Z,4.97
2018-09-18T04:30:29.920Z,4.53
2018-09-18T04:31:04.325Z,4.47
2018-09-18T04:31:39.779Z,4.33
2018-09-18T04:32:13.694Z,4.10
2018-09-18T04:32:47.557Z,4.87
2018-09-18T04:33:21.428Z,4.63
2018-09-18T04:33:55.281Z,4.10
2018-09-18T04:34:29.148Z,4.23
2018-09-18T04:35:02.974Z,4.20
2018-09-18T04:35:36.838Z,4.10
2018-09-18T04:36:10.718Z,4.60
2018-09-18T04:36:44.553Z,4.00
2018-09-18T04:37:18.411Z,4.80
2018-09-18T04:37:52.310Z,4.30
2018-09-18T04:38:26.169Z,5.30
2018-09-18T04:39:00.043Z,4.30
2018-09-18T04:39:33.893Z,4.50
2018-09-18T04:40:08.097Z,3.83
2018-09-18T04:40:42.294Z,4.00
2018-09-18T04:41:16.177Z,4.13
2018-09-18T04:41:50.030Z,3.97
2018-09-18T04:42:23.911Z,3.53
2018-09-18T04:42:58.497Z,4.27
2018-09-18T04:43:32.365Z,3.80
2018-09-18T04:44:06.480Z,4.10
2018-09-18T04:44:40.361Z,4.27
2018-09-18T04:45:14.397Z,3.90
2018-09-18T04:45:48.284Z,4.37
2018-09-18T04:46:22.673Z,3.87
2018-09-18T04:46:56.571Z,4.03
2018-09-18T04:47:30.453Z,4.20
2018-09-18T04:48:04.993Z,3.90
2018-09-18T04:48:39.283Z,3.77
2018-09-18T04:49:13.145Z,3.53
2018-09-18T04:49:46.992Z,4.00
2018-09-18T04:50:20.841Z,4.10
2018-09-18T04:50:54.713Z,5.00
2018-09-18T04:51:28.616Z,5.27
2018-09-18T04:52:02.527Z,4.70
2018-09-18T04:52:36.462Z,4.43
2018-09-18T04:53:10.381Z,5.20
2018-09-18T04:53:44.225Z,5.77
2018-09-18T04:54:18.100Z,4.80
2018-09-18T04:54:52.285Z,5.30
2018-09-18T04:55:26.369Z,4.73
2018-09-18T04:56:00.243Z,4.80
2018-09-18T04:56:34.167Z,5.63
2018-09-18T04:57:08.049Z,5.10
2018-09-18T04:57:41.968Z,4.43
2018-09-18T04:58:16.219Z,4.23
2018-09-18T04:58:50.185Z,4.40
2018-09-18T04:59:24.386Z,4.77
2018-09-18T04:59:58.488Z,5.00
2018-09-18T05:00:32.353Z,4.80
2018-09-18T05:01:06.719Z,3.93
2018-09-18T05:01:40.578Z,4.30
2018-09-18T05:02:14.568Z,5.10
2018-09-18T05:02:48.529Z,4.90
2018-09-18T05:03:22.440Z,4.23
2018-09-18T05:03:56.321Z,4.83
2018-09-18T05:04:30.173Z,5.20
2018-09-18T05:05:04.075Z,5.63
2018-09-18T05:05:38.001Z,4.60
2018-09-18T05:06:11.897Z,5.20
2018-09-18T05:06:46.095Z,4.20
2018-09-18T05:07:20.303Z,4.80
2018-09-18T05:07:54.193Z,4.50
2018-09-18T05:08:28.226Z,4.50
2018-09-18T05:09:02.136Z,4.50
2018-09-18T05:09:36.391Z,4.80
2018-09-18T05:10:10.255Z,5.33
2018-09-18T05:10:44.473Z,4.90
2018-09-18T05:11:18.687Z,4.83
2018-09-18T05:11:52.542Z,3.90
2018-09-18T05:12:26.483Z,4.33
2018-09-18T05:13:00.382Z,4.77
2018-09-18T05:13:34.329Z,5.20
2018-09-18T05:14:08.256Z,5.13
2018-09-18T05:14:42.322Z,5.00
2018-09-18T05:15:16.149Z,4.67
2018-09-18T05:15:50.023Z,4.40
2018-09-18T05:16:23.885Z,4.30
2018-09-18T05:16:57.761Z,4.30
2018-09-18T05:17:31.599Z,4.17
2018-09-18T05:18:05.460Z,4.10
2018-09-18T05:18:39.723Z,4.10
2018-09-18T05:19:14.071Z,4.90
2018-09-18T05:19:51.485Z,4.20
2018-09-18T05:20:25.335Z,4.93
2018-09-18T05:20:59.189Z,4.80
2018-09-18T05:21:40.631Z,4.93
2018-09-18T05:22:14.569Z,4.43
2018-09-18T05:22:50.133Z,3.93
2018-09-18T05:23:24.229Z,3.60
2018-09-18T05:23:58.101Z,3.87
2018-09-18T05:24:32.022Z,4.10
2018-09-18T05:25:06.264Z,4.10
2018-09-18T05:25:40.161Z,4.20
2018-09-18T05:26:14.194Z,3.60
2018-09-18T05:26:48.111Z,4.13
2018-09-18T05:27:23.997Z,3.27
2018-09-18T05:28:00.409Z,3.87
2018-09-18T05:28:34.329Z,3.70
2018-09-18T05:29:08.244Z,3.03
2018-09-18T05:29:45.579Z,3.30
2018-09-18T05:30:24.385Z,3.50
2018-09-18T05:30:58.609Z,3.60
2018-09-18T05:31:33.473Z,4.60
2018-09-18T05:32:07.645Z,3.57
2018-09-18T05:32:45.435Z,3.30
2018-09-18T05:33:21.773Z,3.30
2018-09-18T05:33:55.621Z,3.23
2018-09-18T05:34:29.533Z,3.77
2018-09-18T05:35:03.755Z,3.50
2018-09-18T05:35:37.621Z,3.80
2018-09-18T05:36:11.821Z,3.30
2018-09-18T05:36:45.697Z,3.50
2018-09-18T05:37:19.569Z,3.60
2018-09-18T05:37:53.431Z,4.00
2018-09-18T05:38:27.363Z,3.70
2018-09-18T05:39:01.267Z,3.63
2018-09-18T05:39:35.161Z,4.27
2018-09-18T05:40:09.401Z,3.97
2018-09-18T05:40:43.431Z,4.07
2018-09-18T05:41:17.309Z,3.60
2018-09-18T05:41:51.244Z,3.40
2018-09-18T05:42:25.303Z,4.00
2018-09-18T05:42:59.151Z,4.00
2018-09-18T05:43:33.005Z,3.67
2018-09-18T05:44:07.212Z,3.70
2018-09-18T05:44:41.155Z,3.90
2018-09-18T05:45:15.007Z,3.67
2018-09-18T05:45:48.863Z,4.07
2018-09-18T05:46:22.769Z,3.60
2018-09-18T05:46:56.619Z,3.80
2018-09-18T05:47:30.867Z,4.30
2018-09-18T05:48:04.786Z,3.80
2018-09-18T05:48:38.841Z,3.90
2018-09-18T05:49:12.725Z,3.63
2018-09-18T05:49:46.595Z,3.33
2018-09-18T05:50:20.461Z,3.90
2018-09-18T05:50:54.405Z,3.53
2018-09-18T05:51:28.269Z,4.00
2018-09-18T05:52:02.193Z,4.50
2018-09-18T05:52:36.061Z,3.60
2018-09-18T05:53:10.561Z,3.73
2018-09-18T05:53:44.415Z,4.10
2018-09-18T05:54:18.255Z,3.77
2018-09-18T05:54:52.161Z,4.20
2018-09-18T05:55:26.077Z,3.47
2018-09-18T05:55:59.952Z,3.27
2018-09-18T05:56:33.813Z,3.67
2018-09-18T05:57:08.013Z,3.37
2018-09-18T05:57:41.885Z,3.40
2018-09-18T05:58:15.725Z,3.27
2018-09-18T05:58:49.965Z,3.60
2018-09-18T05:59:23.795Z,3.80
2018-09-18T05:59:57.693Z,3.33
2018-09-18T06:00:31.613Z,3.23
2018-09-18T06:01:05.819Z,3.43
2018-09-18T06:01:39.671Z,3.90
2018-09-18T06:02:13.600Z,3.10
2018-09-18T06:02:47.611Z,3.63
2018-09-18T06:03:21.851Z,3.30
2018-09-18T06:03:56.043Z,3.93
2018-09-18T06:04:29.947Z,3.30
2018-09-18T06:05:04.167Z,3.13
2018-09-18T06:05:38.019Z,3.27
2018-09-18T06:06:11.853Z,3.87
2018-09-18T06:06:45.743Z,3.50
2018-09-18T06:07:19.575Z,3.20
2018-09-18T06:07:53.467Z,3.63
2018-09-18T06:08:27.697Z,3.53
2018-09-18T06:09:01.609Z,3.07
2018-09-18T06:09:35.499Z,3.43
2018-09-18T06:10:09.736Z,3.73
2018-09-18T06:10:43.597Z,3.70
2018-09-18T06:11:17.459Z,3.70
2018-09-18T06:11:51.369Z,3.13
2018-09-18T06:12:25.226Z,3.60
2018-09-18T06:12:59.469Z,3.20
2018-09-18T06:13:33.421Z,3.90
2018-09-18T06:14:07.331Z,3.40
2018-09-18T06:14:41.189Z,3.97
2018-09-18T06:15:15.061Z,3.40
2018-09-18T06:15:49.017Z,3.60
2018-09-18T06:16:22.884Z,3.70
2018-09-18T06:16:56.991Z,3.70
2018-09-18T06:17:30.853Z,3.67
2018-09-18T06:18:04.709Z,3.63
2018-09-18T06:18:38.589Z,3.47
2018-09-18T06:19:12.688Z,3.80
2018-09-18T06:19:47.084Z,3.63
2018-09-18T06:20:21.357Z,3.30
2018-09-18T06:20:55.251Z,4.00
2018-09-18T06:21:29.115Z,3.43
2018-09-18T06:22:02.977Z,4.00
2018-09-18T06:22:36.888Z,4.10
2018-09-18T06:23:10.731Z,3.40
2018-09-18T06:23:44.613Z,3.63
2018-09-18T06:24:18.478Z,3.70
2018-09-18T06:24:52.327Z,3.70
2018-09-18T06:25:26.236Z,4.10
2018-09-18T06:26:00.349Z,3.43
2018-09-18T06:26:34.226Z,3.73
2018-09-18T06:27:08.826Z,3.40
2018-09-18T06:27:43.313Z,3.37
2018-09-18T06:28:17.201Z,3.23
2018-09-18T06:28:51.044Z,3.10
2018-09-18T06:29:24.913Z,3.63
2018-09-18T06:29:58.793Z,3.23
2018-09-18T06:30:32.679Z,3.50
2018-09-18T06:31:06.893Z,3.77
2018-09-18T06:31:40.785Z,3.10
2018-09-18T06:32:14.667Z,4.20
2018-09-18T06:32:48.585Z,3.13
2018-09-18T06:33:22.813Z,3.30
2018-09-18T06:33:56.745Z,3.43
2018-09-18T06:34:30.595Z,3.67
2018-09-18T06:35:04.827Z,4.50
2018-09-18T06:35:38.744Z,4.27
2018-09-18T06:36:12.596Z,3.47
2018-09-18T06:36:46.539Z,3.17
2018-09-18T06:37:20.373Z,3.77
2018-09-18T06:37:54.432Z,3.50
2018-09-18T06:38:28.296Z,3.50
2018-09-18T06:39:02.443Z,3.27
2018-09-18T06:39:36.635Z,4.07
2018-09-18T06:40:10.844Z,3.60
2018-09-18T06:40:44.953Z,4.07
2018-09-18T06:41:18.985Z,3.80
2018-09-18T06:41:53.307Z,3.73
2018-09-18T06:42:29.350Z,4.10
2018-09-18T06:43:04.167Z,3.53
2018-09-18T06:43:38.199Z,3.97
2018-09-18T06:44:12.177Z,3.37
2018-09-18T06:44:47.261Z,3.40
2018-09-18T06:45:21.147Z,3.90
2018-09-18T06:45:55.588Z,3.40
2018-09-18T06:46:29.619Z,4.60
2018-09-18T06:47:03.539Z,3.80
2018-09-18T06:47:37.727Z,3.57
2018-09-18T06:48:11.616Z,3.57
2018-09-18T06:48:45.539Z,5.17
2018-09-18T06:49:19.424Z,3.90
2018-09-18T06:49:53.350Z,3.33
2018-09-18T06:50:27.201Z,3.77
2018-09-18T06:51:01.099Z,4.50
2018-09-18T06:51:34.964Z,3.47
2018-09-18T06:52:08.779Z,3.67
2018-09-18T06:52:42.603Z,3.20
2018-09-18T06:53:16.504Z,4.30
2018-09-18T06:53:50.433Z,3.60
2018-09-18T06:54:24.336Z,3.90
2018-09-18T06:54:58.791Z,4.10
2018-09-18T06:55:32.661Z,3.70
2018-09-18T06:56:07.017Z,3.90
2018-09-18T06:56:40.891Z,3.83
2018-09-18T06:57:14.740Z,4.17
2018-09-18T06:57:48.591Z,4.07
2018-09-18T06:58:22.443Z,4.03
2018-09-18T06:58:56.607Z,3.80
2018-09-18T06:59:30.435Z,4.10
2018-09-18T07:00:04.425Z,4.17
2018-09-18T07:00:38.301Z,3.67
2018-09-18T07:01:12.247Z,3.80
2018-09-18T07:01:46.147Z,4.03
2018-09-18T07:02:20.393Z,3.90
2018-09-18T07:02:54.275Z,3.70
2018-09-18T07:03:28.131Z,4.37
2018-09-18T07:04:02.332Z,4.10
2018-09-18T07:04:36.161Z,3.87
2018-09-18T07:05:10.045Z,3.60
2018-09-18T07:05:43.945Z,4.37
2018-09-18T07:06:18.292Z,3.97
2018-09-18T07:06:52.498Z,4.50
2018-09-18T07:07:26.335Z,4.30
2018-09-18T07:08:00.175Z,4.33
2018-09-18T07:08:34.505Z,4.37
2018-09-18T07:09:09.230Z,4.37
2018-09-18T07:09:43.121Z,3.80
2018-09-18T07:10:16.985Z,3.90
2018-09-18T07:10:50.845Z,5.23
2018-09-18T07:11:25.063Z,5.70
2018-09-18T07:11:58.907Z,5.00
2018-09-18T07:12:32.772Z,4.57
2018-09-18T07:13:06.624Z,4.50
2018-09-18T07:13:40.481Z,3.90
2018-09-18T07:14:14.347Z,4.50
2018-09-18T07:14:51.073Z,3.70
2018-09-18T07:15:24.928Z,3.97
2018-09-18T07:15:59.125Z,3.60
2018-09-18T07:16:33.004Z,4.13
2018-09-18T07:17:07.201Z,3.70
2018-09-18T07:17:41.365Z,4.30
2018-09-18T07:18:15.197Z,4.57
2018-09-18T07:18:49.052Z,3.60
2018-09-18T07:19:22.951Z,4.40
2018-09-18T07:19:56.803Z,3.50
2018-09-18T07:20:30.995Z,3.90
2018-09-18T07:21:04.983Z,4.27
2018-09-18T07:21:38.933Z,3.80
2018-09-18T07:22:12.795Z,4.27
2018-09-18T07:22:46.765Z,4.10
2018-09-18T07:23:20.655Z,4.00
2018-09-18T07:23:54.859Z,4.33
2018-09-18T07:24:28.733Z,4.13
2018-09-18T07:25:02.602Z,4.33
2018-09-18T07:25:36.487Z,4.37
2018-09-18T07:26:10.403Z,4.50
2018-09-18T07:26:45.141Z,3.70
2018-09-18T07:27:20.023Z,5.10
2018-09-18T07:27:53.895Z,3.70
2018-09-18T07:28:27.729Z,4.20
2018-09-18T07:29:01.603Z,4.00
2018-09-18T07:29:35.491Z,4.10
2018-09-18T07:30:09.877Z,3.90
2018-09-18T07:30:43.789Z,3.87
2018-09-18T07:31:17.644Z,4.43
2018-09-18T07:31:51.587Z,4.30
2018-09-18T07:32:25.444Z,4.13
2018-09-18T07:32:59.356Z,4.83
2018-09-18T07:33:33.265Z,3.80
2018-09-18T07:34:07.177Z,4.13
2018-09-18T07:34:41.037Z,3.30